createdAt,value
2022-12-04T00:00:31.212Z,79.44
2022-12-04T00:04:33.003Z,79.49
2022-12-04T00:08:35.154Z,78.28
2022-12-04T00:12:36.913Z,78.98
2022-12-04T00:16:38.693Z,79.54
2022-12-04T00:20:40.830Z,78.63
2022-12-04T00:24:42.541Z,79.21
2022-12-04T00:28:44.335Z,78.30
2022-12-04T00:32:45.998Z,78.49
2022-12-04T00:36:47.520Z,77.93
2022-12-04T00:40:52.417Z,77.94
2022-12-04T00:44:53.992Z,78.40
2022-12-04T00:48:56.122Z,77.79
2022-12-04T00:52:58.400Z,78.20
2022-12-04T00:57:00.020Z,78.02
2022-12-04T01:01:07.920Z,77.68
2022-12-04T01:05:10.296Z,77.37
2022-12-04T01:09:11.967Z,77.23
2022-12-04T01:13:13.629Z,77.17
2022-12-04T01:17:15.150Z,76.97
2022-12-04T01:21:17.252Z,77.61
2022-12-04T01:25:20.300Z,77.81
2022-12-04T01:29:22.283Z,77.52
2022-12-04T01:33:23.947Z,77.56
2022-12-04T01:37:25.656Z,77.33
2022-12-04T01:41:29.963Z,77.43
2022-12-04T01:45:31.449Z,77.93
2022-12-04T01:49:38.118Z,78.25
2022-12-04T01:53:42.192Z,78.59
2022-12-04T01:57:45.518Z,78.55
2022-12-04T02:02:10.976Z,78.22
2022-12-04T02:06:12.810Z,78.90
2022-12-04T02:10:17.147Z,78.62
2022-12-04T02:14:49.591Z,78.97
2022-12-04T02:19:17.492Z,78.53
2022-12-04T02:23:56.676Z,78.56
2022-12-04T02:28:23.922Z,78.23
2022-12-04T02:32:44.092Z,78.46
2022-12-04T02:36:56.027Z,78.47
2022-12-04T02:41:03.788Z,78.40
2022-12-04T02:45:16.296Z,78.36
2022-12-04T02:49:24.876Z,78.69
2022-12-04T02:53:31.873Z,78.39
2022-12-04T02:57:38.651Z,78.56
2022-12-04T03:01:43.665Z,78.45
2022-12-04T03:05:55.453Z,78.94
2022-12-04T03:10:06.423Z,78.80
2022-12-04T03:14:17.464Z,78.47
2022-12-04T03:18:26.758Z,78.17
2022-12-04T03:22:31.481Z,78.06
2022-12-04T03:26:46.581Z,77.97
2022-12-04T03:30:57.549Z,78.05
2022-12-04T03:35:05.463Z,77.94
2022-12-04T03:39:48.507Z,77.97
2022-12-04T03:44:04.562Z,78.51
2022-12-04T03:48:21.220Z,78.59
2022-12-04T03:52:30.905Z,78.89
2022-12-04T03:56:37.713Z,78.73
2022-12-04T04:00:42.951Z,78.39
2022-12-04T04:04:49.520Z,78.75
2022-12-04T04:08:57.005Z,78.54
2022-12-04T04:13:20.600Z,78.56
2022-12-04T04:17:45.103Z,78.86
2022-12-04T04:22:16.550Z,79.05
2022-12-04T04:26:18.444Z,78.87
2022-12-04T04:30:20.283Z,78.85
2022-12-04T04:34:32.443Z,78.62
2022-12-04T04:38:45.681Z,78.51
2022-12-04T04:42:58.037Z,78.60
2022-12-04T04:47:03.773Z,78.44
2022-12-04T04:51:06.331Z,79.01
2022-12-04T04:55:09.327Z,79.14
2022-12-04T04:59:11.809Z,79.19
2022-12-04T05:03:13.375Z,79.45
2022-12-04T05:07:14.996Z,79.65
2022-12-04T05:11:17.335Z,79.02
2022-12-04T05:15:19.030Z,79.22
2022-12-04T05:19:39.242Z,78.46
2022-12-04T05:23:40.929Z,79.38
2022-12-04T05:27:42.597Z,79.28
2022-12-04T05:31:44.336Z,78.96
2022-12-04T05:35:45.810Z,79.30
2022-12-04T05:39:47.764Z,78.87
2022-12-04T05:43:49.224Z,79.47
2022-12-04T05:47:50.884Z,79.26
2022-12-04T05:51:52.369Z,79.26
2022-12-04T05:55:56.395Z,79.72
2022-12-04T05:59:58.180Z,79.71
2022-12-04T06:04:00.165Z,79.59
2022-12-04T06:08:01.827Z,79.78
2022-12-04T06:12:04.693Z,79.70
2022-12-04T06:16:06.240Z,79.71
2022-12-04T06:20:11.764Z,79.05
2022-12-04T06:24:16.556Z,79.16
2022-12-04T06:28:18.128Z,78.99
2022-12-04T06:32:22.051Z,79.18
2022-12-04T06:36:24.242Z,79.53
2022-12-04T06:40:25.839Z,79.48
2022-12-04T06:44:27.494Z,79.18
2022-12-04T06:48:29.466Z,79.39
2022-12-04T06:52:33.862Z,79.51
2022-12-04T06:56:35.634Z,79.65
2022-12-04T07:00:37.213Z,79.33
2022-12-04T07:04:38.976Z,79.76
2022-12-04T07:08:43.633Z,79.20
2022-12-04T07:12:48.103Z,79.49
2022-12-04T07:16:49.950Z,79.48
2022-12-04T07:20:51.592Z,79.48
2022-12-04T07:24:53.288Z,79.27
2022-12-04T07:28:55.854Z,79.67
2022-12-04T07:32:57.415Z,79.20
2022-12-04T07:36:58.914Z,79.66
2022-12-04T07:41:04.361Z,79.49
2022-12-04T07:45:06.590Z,79.68
2022-12-04T07:49:12.640Z,79.18
2022-12-04T07:53:14.604Z,78.99
2022-12-04T07:57:16.273Z,78.33
2022-12-04T08:01:23.302Z,78.30
2022-12-04T08:05:25.032Z,78.18
2022-12-04T08:09:26.539Z,77.74
2022-12-04T08:13:28.114Z,77.63
2022-12-04T08:17:30.021Z,78.47
2022-12-04T08:21:33.734Z,79.00
2022-12-04T08:25:40.345Z,78.70
2022-12-04T08:29:42.215Z,78.69
2022-12-04T08:33:51.665Z,78.67
2022-12-04T08:37:53.772Z,78.24
2022-12-04T08:41:57.251Z,77.96
2022-12-04T08:46:06.999Z,77.72
2022-12-04T08:50:08.974Z,77.32
2022-12-04T08:54:13.330Z,76.75
2022-12-04T08:58:15.076Z,76.74
2022-12-04T09:02:16.727Z,76.49
2022-12-04T09:06:19.195Z,76.44
2022-12-04T09:10:20.805Z,76.13
2022-12-04T09:14:25.823Z,76.21
2022-12-04T09:18:27.437Z,75.89
2022-12-04T09:22:45.542Z,75.19
2022-12-04T09:26:50.423Z,75.40
2022-12-04T09:31:12.197Z,75.21
2022-12-04T09:35:13.948Z,75.33
2022-12-04T09:39:15.642Z,77.37
2022-12-04T09:43:51.850Z,77.03
2022-12-04T09:47:58.236Z,77.44
2022-12-04T09:52:03.787Z,77.58
2022-12-04T09:56:10.574Z,77.29
2022-12-04T10:00:16.624Z,76.99
2022-12-04T10:04:19.178Z,77.19
2022-12-04T10:08:29.112Z,76.98
2022-12-04T10:12:46.304Z,76.98
2022-12-04T10:17:10.814Z,77.19
2022-12-04T10:21:45.913Z,77.09
2022-12-04T10:25:51.935Z,77.18
2022-12-04T10:30:17.476Z,77.23
2022-12-04T10:34:23.471Z,76.39
2022-12-04T10:38:44.969Z,76.75
2022-12-04T10:43:16.702Z,76.87
2022-12-04T10:47:18.516Z,76.96
2022-12-04T10:51:22.542Z,77.02
2022-12-04T10:55:43.700Z,76.75
2022-12-04T10:59:55.449Z,76.76
2022-12-04T11:04:05.713Z,76.67
2022-12-04T11:08:23.684Z,76.22
2022-12-04T11:12:26.120Z,76.20
2022-12-04T11:16:40.622Z,75.81
2022-12-04T11:20:50.266Z,75.80
2022-12-04T11:24:57.917Z,76.00
2022-12-04T11:29:05.170Z,75.69
2022-12-04T11:33:23.586Z,76.25
2022-12-04T11:37:30.494Z,75.89
2022-12-04T11:41:37.096Z,75.76
2022-12-04T11:45:38.931Z,75.76
2022-12-04T11:49:43.844Z,75.36
2022-12-04T11:54:00.598Z,75.84
2022-12-04T11:58:22.981Z,75.48
2022-12-04T12:03:06.258Z,75.98
2022-12-04T12:08:03.418Z,75.67
2022-12-04T12:12:42.842Z,75.38
2022-12-04T12:21:33.291Z,75.09
2022-12-04T12:25:40.873Z,75.59
2022-12-04T12:30:00.992Z,75.16
2022-12-04T12:34:17.939Z,75.03
2022-12-04T12:38:25.182Z,75.28
2022-12-04T12:42:44.728Z,74.74
2022-12-04T12:46:53.174Z,74.38
2022-12-04T12:52:03.192Z,74.44
2022-12-04T12:56:13.386Z,75.00
2022-12-04T13:00:21.686Z,74.63
2022-12-04T13:04:35.368Z,74.89
2022-12-04T13:09:00.249Z,74.74
2022-12-04T13:13:17.121Z,74.32
2022-12-04T13:17:51.637Z,74.38
2022-12-04T13:22:11.910Z,73.57
2022-12-04T13:26:30.875Z,74.24
2022-12-04T13:31:02.743Z,74.49
2022-12-04T13:35:07.477Z,74.28
2022-12-04T13:39:32.213Z,73.95
2022-12-04T13:43:41.788Z,73.64
2022-12-04T13:47:43.289Z,74.03
2022-12-04T13:51:51.758Z,73.81
2022-12-04T13:56:01.904Z,73.92
2022-12-04T14:00:25.941Z,73.89
2022-12-04T14:04:40.793Z,73.85
2022-12-04T14:08:43.747Z,74.14
2022-12-04T14:12:58.244Z,73.97
2022-12-04T14:17:00.585Z,73.98
2022-12-04T14:21:06.557Z,73.89
2022-12-04T14:25:36.897Z,72.50
2022-12-04T14:29:49.760Z,72.85
2022-12-04T14:33:58.946Z,72.63
2022-12-04T14:38:04.147Z,72.94
2022-12-04T14:42:14.612Z,73.12
2022-12-04T14:46:37.029Z,73.91
2022-12-04T14:50:44.136Z,74.74
2022-12-04T14:55:11.740Z,74.95
2022-12-04T14:59:27.010Z,74.91
2022-12-04T15:03:34.517Z,75.42
2022-12-04T15:07:40.009Z,74.89
2022-12-04T15:12:18.621Z,74.91
2022-12-04T15:16:41.092Z,74.65
2022-12-04T15:20:49.562Z,74.27
2022-12-04T15:25:25.524Z,74.21
2022-12-04T15:29:37.979Z,74.65
2022-12-04T15:33:44.473Z,74.60
2022-12-04T15:37:46.659Z,74.49
2022-12-04T15:41:49.244Z,74.93
2022-12-04T15:45:53.916Z,74.34
2022-12-04T15:49:56.037Z,74.84
2022-12-04T15:53:57.704Z,75.35
2022-12-04T15:58:06.293Z,74.74
2022-12-04T16:02:31.723Z,75.44
2022-12-04T16:06:34.911Z,75.22
2022-12-04T16:10:37.923Z,75.34
2022-12-04T16:14:39.586Z,75.31
2022-12-04T16:18:43.396Z,74.88
2022-12-04T16:22:45.832Z,75.22
2022-12-04T16:26:50.375Z,75.90
2022-12-04T16:30:55.238Z,76.05
2022-12-04T16:34:57.120Z,75.30
2022-12-04T16:38:58.799Z,75.36
2022-12-04T16:43:01.738Z,75.03
2022-12-04T16:47:03.197Z,75.13
2022-12-04T16:51:05.025Z,74.98
2022-12-04T16:55:18.868Z,74.79
2022-12-04T16:59:20.503Z,75.05
2022-12-04T17:03:27.445Z,74.86
2022-12-04T17:07:29.274Z,74.83
2022-12-04T17:11:31.094Z,74.60
2022-12-04T17:15:32.944Z,75.05
2022-12-04T17:19:34.583Z,75.37
2022-12-04T17:23:37.081Z,75.41
2022-12-04T17:27:39.160Z,75.18
2022-12-04T17:31:40.810Z,75.39
2022-12-04T17:35:43.950Z,74.63
2022-12-04T17:39:46.274Z,75.81
2022-12-04T17:43:47.938Z,75.59
2022-12-04T17:47:49.674Z,75.20
2022-12-04T17:51:51.272Z,75.11
2022-12-04T17:55:53.267Z,74.46
2022-12-04T17:59:54.802Z,74.40
2022-12-04T18:03:59.192Z,73.54
2022-12-04T18:08:00.702Z,73.18
2022-12-04T18:12:02.588Z,73.07
2022-12-04T18:16:05.780Z,72.38
2022-12-04T18:20:09.587Z,72.50
2022-12-04T18:24:12.441Z,72.52
2022-12-04T18:28:14.153Z,72.73
2022-12-04T18:32:15.830Z,72.02
2022-12-04T18:36:22.350Z,70.91
2022-12-04T18:40:24.992Z,70.59
2022-12-04T18:44:26.751Z,70.10
2022-12-04T18:48:28.464Z,70.15
2022-12-04T18:52:32.279Z,70.00
2022-12-04T18:56:35.650Z,69.70
2022-12-04T19:00:37.853Z,69.92
2022-12-04T19:04:39.394Z,69.66
2022-12-04T19:08:59.542Z,69.77
2022-12-04T19:13:07.117Z,70.06
2022-12-04T19:17:15.264Z,69.70
2022-12-04T19:21:18.007Z,69.72
2022-12-04T19:25:22.667Z,69.52
2022-12-04T19:29:27.235Z,69.63
2022-12-04T19:33:29.469Z,69.83
2022-12-04T19:37:35.849Z,70.02
2022-12-04T19:41:43.654Z,69.80
2022-12-04T19:45:51.546Z,69.48
2022-12-04T19:49:56.867Z,69.81
2022-12-04T19:53:59.764Z,69.82
2022-12-04T19:58:02.665Z,69.36
2022-12-04T20:02:05.891Z,69.87
2022-12-04T20:06:13.487Z,69.67
2022-12-04T20:10:15.966Z,69.56
2022-12-04T20:14:17.942Z,69.55
2022-12-04T20:18:19.560Z,69.82
2022-12-04T20:22:27.329Z,69.31
2022-12-04T20:26:38.123Z,69.47
2022-12-04T20:30:43.234Z,69.31
2022-12-04T20:34:44.890Z,69.40
2022-12-04T20:38:46.804Z,69.56
2022-12-04T20:42:48.707Z,69.51
2022-12-04T20:46:55.115Z,69.38
2022-12-04T20:51:00.393Z,69.47
2022-12-04T20:55:02.396Z,69.73
2022-12-04T20:59:14.539Z,69.59
2022-12-04T21:03:16.536Z,69.64
2022-12-04T21:07:18.057Z,68.95
2022-12-04T21:11:28.453Z,69.18
2022-12-04T21:15:51.799Z,69.06
2022-12-04T21:20:01.560Z,68.79
2022-12-04T21:24:12.788Z,69.50
2022-12-04T21:28:16.491Z,69.45
2022-12-04T21:32:25.271Z,69.20
2022-12-04T21:37:32.904Z,68.96
2022-12-04T21:41:56.246Z,69.13
2022-12-04T21:45:58.174Z,69.03
2022-12-04T21:50:04.521Z,68.87
2022-12-04T21:54:06.574Z,68.95
2022-12-04T21:58:08.255Z,68.56
2022-12-04T22:02:13.902Z,68.48
2022-12-04T22:06:15.793Z,68.48
2022-12-04T22:10:27.730Z,68.66
2022-12-04T22:14:52.103Z,68.91
2022-12-04T22:18:58.464Z,68.96
2022-12-04T22:23:00.410Z,69.34
2022-12-04T22:27:01.999Z,69.72
2022-12-04T22:31:06.245Z,70.41
2022-12-04T22:35:13.595Z,70.72
2022-12-04T22:39:15.261Z,70.71
2022-12-04T22:43:16.835Z,71.66
2022-12-04T22:47:18.584Z,72.06
2022-12-04T22:51:22.652Z,71.31
2022-12-04T22:55:26.763Z,72.10
2022-12-04T22:59:28.423Z,72.43
2022-12-04T23:03:30.033Z,72.36
2022-12-04T23:07:31.624Z,72.04
2022-12-04T23:11:34.268Z,72.09
2022-12-04T23:15:37.952Z,71.84
2022-12-04T23:19:39.491Z,72.19
2022-12-04T23:23:43.398Z,71.79
2022-12-04T23:27:46.203Z,72.40
2022-12-04T23:31:47.924Z,71.90
2022-12-04T23:35:56.148Z,72.09
2022-12-04T23:39:58.083Z,71.69
2022-12-04T23:43:59.949Z,71.33
2022-12-04T23:48:04.844Z,71.65
2022-12-04T23:52:06.987Z,71.66
2022-12-04T23:56:14.493Z,71.61
